Time;durP1;ratioP1;P1;durP2;ratioP2;P2;SDS_P1;SDS_P2;PMS_P1;PMS_P2;Temp;Humidity;BMP_temperature;BMP_pressure;BME280_temperature;BME280_humidity;BME280_pressure;Samples;Min_cycle;Max_cycle;Signal;HPM_P1;HPM_P2
2022/12/22 03:27:51;;;;;;;10.97;9.87;;;;;;;2.92;100.00;96021.91;5031304;27;102001;-72
2022/12/22 03:30:19;;;;;;;10.73;9.63;;;;;;;3.00;100.00;96021.66;5013691;28;105617;-71
2022/12/22 03:32:48;;;;;;;10.80;9.70;;;;;;;2.92;100.00;96014.03;5014517;28;104194;-72
2022/12/22 03:35:15;;;;;;;10.70;9.60;;;;;;;2.82;100.00;96021.56;5014777;28;102035;-72
2022/12/22 03:37:42;;;;;;;10.53;9.43;;;;;;;2.81;100.00;96023.41;5015505;28;104786;-71
2022/12/22 03:40:11;;;;;;;10.93;9.10;;;;;;;2.94;100.00;96017.25;5032865;28;103160;-71
2022/12/22 03:48:09;;;;;;;11.17;9.43;;;;;;;3.20;100.00;96017.88;5014659;28;101830;-71
2022/12/22 03:50:36;;;;;;;9.77;8.77;;;;;;;3.27;100.00;96016.00;5014844;28;105120;-71
2022/12/22 03:53:03;;;;;;;12.90;9.87;;;;;;;3.36;100.00;96022.59;5013767;28;104069;-71
2022/12/22 03:55:31;;;;;;;10.53;8.87;;;;;;;3.40;100.00;96017.72;5014861;28;101845;-71
2022/12/22 03:57:59;;;;;;;9.13;8.20;;;;;;;3.47;100.00;96019.28;5013781;28;104850;-72
2022/12/22 04:00:26;;;;;;;8.60;7.60;;;;;;;3.54;100.00;96013.94;5012695;28;105602;-71
2022/12/22 04:02:53;;;;;;;9.20;8.17;;;;;;;3.58;100.00;96015.13;5016925;28;101926;-72
2022/12/22 04:05:21;;;;;;;8.70;7.73;;;;;;;3.53;100.00;96022.84;5013012;28;104973;-72
2022/12/22 04:07:48;;;;;;;9.50;8.23;;;;;;;3.55;100.00;96015.56;5013892;28;101747;-72
2022/12/22 04:13:01;;;;;;;8.43;7.53;;;;;;;3.46;100.00;96020.31;5013198;28;105768;-71
2022/12/22 04:15:31;;;;;;;8.43;7.63;;;;;;;3.51;100.00;96015.22;5013752;28;101786;-71
2022/12/22 04:17:59;;;;;;;10.77;8.87;;;;;;;3.48;100.00;96017.44;5011636;28;105012;-71
2022/12/22 04:20:28;;;;;;;8.53;7.73;;;;;;;3.46;100.00;96011.59;5031141;28;103215;-71
2022/12/22 04:22:57;;;;;;;8.70;7.80;;;;;;;3.41;100.00;96020.13;5012942;28;102215;-71
2022/12/22 04:25:25;;;;;;;8.27;7.33;;;;;;;3.41;100.00;96011.44;5033936;28;102616;-71
2022/12/22 04:27:52;;;;;;;8.30;7.50;;;;;;;3.45;100.00;96016.03;5011819;28;101941;-71
2022/12/22 04:30:19;;;;;;;8.00;7.17;;;;;;;3.41;100.00;96014.88;5014130;28;104786;-71
2022/12/22 04:32:46;;;;;;;8.50;7.70;;;;;;;3.13;100.00;96013.69;5029187;28;103082;-71
2022/12/22 04:35:12;;;;;;;8.53;7.63;;;;;;;3.07;100.00;96011.91;5011505;28;101782;-71
2022/12/22 04:37:41;;;;;;;8.63;7.73;;;;;;;2.85;100.00;96013.28;5011033;28;103601;-71
2022/12/22 04:40:08;;;;;;;7.87;7.07;;;;;;;2.84;100.00;96020.34;5010669;28;105587;-72
2022/12/22 04:42:35;;;;;;;8.27;7.37;;;;;;;2.99;100.00;96015.59;5011323;28;101947;-71
2022/12/22 04:45:02;;;;;;;8.77;7.70;;;;;;;3.00;100.00;96019.81;5011156;28;103697;-71
2022/12/22 04:47:29;;;;;;;9.93;7.20;;;;;;;3.09;100.00;96013.31;5014321;28;105386;-72
2022/12/22 04:49:56;;;;;;;9.43;7.50;;;;;;;3.09;100.00;96004.63;5010230;28;103953;-72
2022/12/22 04:52:24;;;;;;;9.93;7.80;;;;;;;3.10;100.00;95993.91;5010506;28;105713;-72
2022/12/22 04:54:52;;;;;;;9.57;7.67;;;;;;;3.04;100.00;95996.56;5011099;27;101836;-71
2022/12/22 04:57:20;;;;;;;8.93;7.30;;;;;;;3.13;100.00;95996.13;5013818;28;104758;-72
2022/12/22 04:59:48;;;;;;;9.10;7.30;;;;;;;3.15;100.00;95998.50;5014779;28;105341;-71
2022/12/22 05:02:16;;;;;;;9.17;8.27;;;;;;;3.07;100.00;95990.91;5014607;28;101992;-71
2022/12/22 05:04:43;;;;;;;9.50;7.83;;;;;;;3.11;100.00;95987.63;5031256;28;105090;-72
2022/12/22 05:07:10;;;;;;;8.53;7.73;;;;;;;3.10;100.00;95987.84;5013555;28;104364;-72
2022/12/22 05:09:37;;;;;;;10.80;8.33;;;;;;;3.12;100.00;95985.81;5035627;28;101859;-71
2022/12/22 05:12:53;;;;;;;11.07;9.53;;;;;;;3.16;100.00;95972.03;5013599;28;104993;-71
2022/12/22 05:14:53;;;;;;;11.20;10.00;;;;;;;2.91;100.00;95976.47;5013747;28;101984;-71
2022/12/22 05:17:20;;;;;;;11.80;10.10;;;;;;;2.90;100.00;95976.69;5027779;27;103582;-71
2022/12/22 05:19:47;;;;;;;12.20;9.50;;;;;;;2.88;100.00;95973.44;5033192;27;105143;-71
2022/12/22 05:22:13;;;;;;;12.63;10.20;;;;;;;2.92;100.00;95983.34;5034509;27;101859;-71
2022/12/22 05:24:40;;;;;;;11.27;9.03;;;;;;;2.97;100.00;95986.13;5032444;27;102538;-71
2022/12/22 05:27:10;;;;;;;12.23;9.00;;;;;;;2.99;100.00;95975.38;5031577;28;102715;-71
2022/12/22 05:29:37;;;;;;;11.30;9.27;;;;;;;3.01;100.00;95978.63;4997743;28;102045;-71
2022/12/22 05:32:04;;;;;;;10.77;9.50;;;;;;;2.99;100.00;95983.25;5017857;28;105239;-71
2022/12/22 05:34:31;;;;;;;11.10;9.80;;;;;;;2.98;100.00;95968.53;5032160;28;101987;-71
2022/12/22 05:36:58;;;;;;;10.97;9.10;;;;;;;2.96;100.00;95968.75;5032503;28;102624;-71
2022/12/22 05:39:25;;;;;;;16.23;9.43;;;;;;;2.93;100.00;95958.69;5013292;28;105635;-71
2022/12/22 05:41:52;;;;;;;13.97;8.47;;;;;;;2.97;100.00;95953.78;5013899;28;101939;-71
2022/12/22 05:44:20;;;;;;;11.97;8.60;;;;;;;3.00;100.00;95969.16;5015701;28;105362;-70
2022/12/22 05:46:50;;;;;;;10.97;8.87;;;;;;;3.02;100.00;95977.59;5014236;28;105028;-70
2022/12/22 05:49:18;;;;;;;10.73;9.23;;;;;;;2.78;100.00;95981.00;5016825;28;102118;-70
2022/12/22 05:51:45;;;;;;;11.60;10.00;;;;;;;2.71;100.00;95980.22;5016188;28;102650;-70
2022/12/22 05:54:12;;;;;;;12.67;9.70;;;;;;;2.76;100.00;95957.59;5016683;28;104244;-70
2022/12/22 05:56:39;;;;;;;10.97;9.43;;;;;;;2.82;100.00;95964.63;5014430;28;105181;-71
2022/12/22 05:59:05;;;;;;;11.93;9.60;;;;;;;2.80;100.00;95958.75;5013166;28;105490;-71
2022/12/22 06:01:34;;;;;;;9.50;8.63;;;;;;;2.89;100.00;95964.56;5032463;27;101872;-71
2022/12/22 06:04:02;;;;;;;11.20;10.10;;;;;;;2.88;100.00;95969.00;5033510;27;103997;-71
2022/12/22 06:06:29;;;;;;;11.67;10.43;;;;;;;2.86;100.00;95965.00;5031956;27;105414;-70
2022/12/22 06:08:56;;;;;;;12.27;10.27;;;;;;;2.79;100.00;95972.91;5032306;27;101970;-70
2022/12/22 06:11:22;;;;;;;12.37;10.13;;;;;;;2.69;100.00;95969.16;5032159;27;105214;-70
2022/12/22 06:13:50;;;;;;;12.10;10.77;;;;;;;2.77;100.00;95974.94;5035213;27;105790;-69
2022/12/22 06:16:17;;;;;;;10.70;9.60;;;;;;;2.87;100.00;95963.97;5031836;27;104893;-69
2022/12/22 06:18:45;;;;;;;11.93;10.53;;;;;;;2.85;100.00;95974.69;5032813;27;105403;-69
2022/12/22 06:21:12;;;;;;;13.47;11.07;;;;;;;2.90;100.00;95968.81;5032170;27;101856;-69
2022/12/22 06:23:39;;;;;;;12.73;10.13;;;;;;;2.88;100.00;95961.13;5031921;27;105430;-69
2022/12/22 06:26:06;;;;;;;12.77;9.97;;;;;;;2.94;100.00;95976.03;5031593;27;105314;-69
2022/12/22 06:28:33;;;;;;;12.33;10.10;;;;;;;2.81;100.00;95981.38;5032198;27;101885;-69
2022/12/22 06:31:00;;;;;;;12.53;10.77;;;;;;;2.87;100.00;95984.97;5032086;27;105552;-70
2022/12/22 06:33:26;;;;;;;15.77;11.60;;;;;;;2.94;100.00;95985.72;5031517;27;105030;-70
2022/12/22 06:35:55;;;;;;;23.63;17.40;;;;;;;3.09;100.00;95994.91;5035618;27;101846;-70
2022/12/22 06:38:22;;;;;;;20.40;14.93;;;;;;;3.09;100.00;96004.63;5031509;27;105428;-70
2022/12/22 06:40:48;;;;;;;23.37;19.57;;;;;;;3.22;100.00;96004.53;5032116;27;101847;-70
2022/12/22 06:43:14;;;;;;;17.70;14.10;;;;;;;3.31;100.00;95997.97;5031922;27;105329;-70
2022/12/22 06:45:43;;;;;;;28.13;21.03;;;;;;;3.40;100.00;95997.50;5030957;27;102734;-70
2022/12/22 06:48:11;;;;;;;26.70;16.97;;;;;;;3.38;100.00;95994.28;5031893;27;102033;-70
2022/12/22 06:50:39;;;;;;;50.80;39.60;;;;;;;3.42;100.00;95984.94;5031964;27;104847;-70
2022/12/22 06:53:07;;;;;;;16.40;13.30;;;;;;;3.42;100.00;95994.66;5031015;27;105308;-70
2022/12/22 06:55:34;;;;;;;16.93;14.03;;;;;;;3.50;100.00;95981.25;5031920;27;102091;-70
2022/12/22 06:58:01;;;;;;;16.03;13.90;;;;;;;3.46;100.00;95980.88;5034415;27;104994;-70
2022/12/22 07:00:28;;;;;;;17.80;11.20;;;;;;;3.38;100.00;95972.47;5031927;27;102214;-70
2022/12/22 07:02:55;;;;;;;11.97;10.20;;;;;;;3.37;100.00;95981.34;5023279;28;105395;-70
2022/12/22 07:05:23;;;;;;;13.73;9.90;;;;;;;3.39;100.00;95980.09;5010720;28;105697;-70
2022/12/22 07:07:50;;;;;;;10.70;9.30;;;;;;;3.50;100.00;95979.41;5012748;28;101883;-70
2022/12/22 07:10:56;;;;;;;11.60;9.90;;;;;;;3.37;100.00;95987.41;5011890;28;105234;-70
2022/12/22 07:13:17;;;;;;;18.23;13.17;;;;;;;3.36;100.00;95985.00;5010642;28;105314;-70
2022/12/22 07:15:45;;;;;;;19.70;14.37;;;;;;;3.27;100.00;95981.84;5012869;27;102121;-70
2022/12/22 07:18:12;;;;;;;21.10;13.60;;;;;;;3.19;100.00;95991.81;5030728;27;104871;-70
2022/12/22 07:20:39;;;;;;;18.60;13.23;;;;;;;3.19;100.00;95989.19;5033701;27;105315;-70
2022/12/22 07:23:05;;;;;;;18.10;13.17;;;;;;;3.21;100.00;95982.69;5031285;27;105456;-70
2022/12/22 07:25:34;;;;;;;17.70;12.53;;;;;;;3.19;100.00;95984.75;5030682;27;105655;-70
2022/12/22 07:28:01;;;;;;;17.20;11.80;;;;;;;3.05;100.00;95974.53;5031224;27;101953;-70
2022/12/22 07:30:28;;;;;;;13.33;11.37;;;;;;;3.10;100.00;95972.88;5031431;27;105535;-70
2022/12/22 07:32:55;;;;;;;13.87;11.20;;;;;;;3.21;100.00;95966.13;5048312;27;104342;-71
2022/12/22 07:35:22;;;;;;;14.17;11.93;;;;;;;3.22;100.00;95973.78;5031264;27;101746;-71
2022/12/22 07:37:49;;;;;;;13.37;11.23;;;;;;;3.19;100.00;95968.16;5031012;27;105436;-70
2022/12/22 07:40:16;;;;;;;13.40;11.20;;;;;;;3.13;100.00;95953.25;5030628;27;105189;-70
2022/12/22 07:42:43;;;;;;;13.57;11.03;;;;;;;3.27;100.00;95952.94;5052957;27;101893;-70
2022/12/22 07:45:11;;;;;;;13.80;11.77;;;;;;;3.19;100.00;95955.03;5030401;27;105660;-70
2022/12/22 07:47:38;;;;;;;13.27;10.97;;;;;;;3.15;100.00;95946.78;5049453;27;101879;-70
2022/12/22 07:52:50;;;;;;;14.10;11.00;;;;;;;3.11;100.00;95947.44;5030371;27;105460;-70
2022/12/22 07:55:17;;;;;;;14.73;11.23;;;;;;;3.10;100.00;95948.44;5030835;27;101942;-70
2022/12/22 07:57:45;;;;;;;13.83;11.00;;;;;;;2.99;100.00;95943.88;5049369;27;102380;-70
2022/12/22 08:00:14;;;;;;;14.63;11.60;;;;;;;3.02;100.00;95930.31;5030362;27;105687;-70
2022/12/22 08:02:43;;;;;;;12.60;10.87;;;;;;;3.14;100.00;95936.47;5030727;27;101945;-70
2022/12/22 08:05:10;;;;;;;15.00;12.07;;;;;;;3.27;100.00;95923.25;5033885;27;105137;-70
2022/12/22 08:07:37;;;;;;;16.67;13.10;;;;;;;3.30;100.00;95933.31;5030496;27;101869;-70
2022/12/22 08:10:04;;;;;;;13.70;10.90;;;;;;;3.39;100.00;95926.75;5030589;27;104061;-70
2022/12/22 08:12:32;;;;;;;13.33;11.20;;;;;;;3.44;100.00;95929.56;5029506;27;105544;-70
2022/12/22 08:15:00;;;;;;;13.73;10.47;;;;;;;3.66;100.00;95922.84;5030682;27;101828;-70
2022/12/22 08:17:27;;;;;;;12.47;9.57;;;;;;;3.82;100.00;95909.13;5030184;27;105534;-70
2022/12/22 08:19:55;;;;;;;13.57;10.63;;;;;;;3.66;100.00;95907.06;5030810;27;105133;-70
2022/12/22 08:22:24;;;;;;;11.43;9.80;;;;;;;3.84;100.00;95904.44;5030865;27;101900;-70
2022/12/22 08:24:51;;;;;;;9.83;8.33;;;;;;;4.01;100.00;95913.34;5034240;27;105477;-70
2022/12/22 08:27:23;;;;;;;19.27;12.37;;;;;;;4.39;100.00;95905.94;5031310;27;101760;-70
2022/12/22 08:29:55;;;;;;;13.53;10.10;;;;;;;4.59;100.00;95903.84;5049530;27;102356;-69
2022/12/22 08:32:29;;;;;;;14.20;9.70;;;;;;;4.90;100.00;95906.19;5033533;27;105221;-69
2022/12/22 08:34:56;;;;;;;13.63;9.00;;;;;;;5.15;100.00;95896.28;5035035;27;101831;-69
2022/12/22 08:37:27;;;;;;;11.77;9.33;;;;;;;5.26;100.00;95890.19;5053260;27;102049;-69
2022/12/22 08:39:58;;;;;;;10.50;8.83;;;;;;;5.28;100.00;95893.41;5052605;27;102804;-70
2022/12/22 08:42:26;;;;;;;15.83;12.87;;;;;;;5.07;100.00;95921.13;5034763;27;101857;-70
2022/12/22 08:44:53;;;;;;;10.50;8.23;;;;;;;5.24;100.00;95914.13;5034155;27;102523;-69
2022/12/22 08:47:22;;;;;;;11.17;8.97;;;;;;;5.28;100.00;95917.13;5037672;27;105164;-69
2022/12/22 08:49:51;;;;;;;7.30;6.60;;;;;;;5.46;100.00;95927.56;5034277;27;105273;-69
2022/12/22 08:52:17;;;;;;;9.27;7.20;;;;;;;5.70;100.00;95929.97;5033821;27;105147;-69
2022/12/22 08:54:44;;;;;;;7.53;6.30;;;;;;;5.82;100.00;95932.59;5053503;27;101948;-70
2022/12/22 08:57:11;;;;;;;6.87;5.30;;;;;;;5.82;100.00;95938.69;5034853;27;105111;-70
2022/12/22 08:59:38;;;;;;;6.70;5.67;;;;;;;5.87;100.00;95944.09;5034014;27;105417;-70
2022/12/22 09:02:05;;;;;;;6.37;5.47;;;;;;;5.87;100.00;95909.78;5034530;27;102127;-69
2022/12/22 09:04:33;;;;;;;10.10;6.27;;;;;;;5.79;100.00;95909.31;5034532;27;105120;-69
2022/12/22 09:07:02;;;;;;;8.63;6.13;;;;;;;5.78;100.00;95926.97;5033783;27;105014;-70
2022/12/22 09:09:32;;;;;;;9.03;6.97;;;;;;;5.92;100.00;95932.81;5037887;27;101884;-69
2022/12/22 09:12:01;;;;;;;6.87;5.77;;;;;;;6.13;100.00;95940.13;5033617;27;106108;-69
2022/12/22 09:14:27;;;;;;;7.23;5.50;;;;;;;6.27;100.00;95930.94;5034244;27;101914;-70
2022/12/22 09:16:59;;;;;;;5.83;5.20;;;;;;;6.26;100.00;95924.00;5033424;27;105091;-70
2022/12/22 09:19:47;;;;;;;8.13;5.60;;;;;;;6.33;100.00;95917.56;5033462;27;105088;-70
2022/12/22 09:22:15;;;;;;;6.43;5.27;;;;;;;6.29;100.00;95905.06;5034523;27;102007;-70
2022/12/22 09:24:42;;;;;;;6.17;5.13;;;;;;;6.44;100.00;95902.72;5034742;27;103891;-70
2022/12/22 09:27:09;;;;;;;7.83;6.47;;;;;;;6.53;100.00;95893.38;5034054;27;104095;-70
2022/12/22 09:29:37;;;;;;;7.37;5.73;;;;;;;6.88;100.00;95892.16;5034515;27;101865;-71
2022/12/22 09:32:37;;;;;;;8.90;6.17;;;;;;;6.95;100.00;95897.28;5037191;27;105695;-70
2022/12/22 09:35:05;;;;;;;9.70;7.20;;;;;;;7.21;100.00;95883.44;5034232;27;102056;-70
2022/12/22 09:37:33;;;;;;;12.00;9.50;;;;;;;7.43;100.00;95868.41;5034459;27;105699;-70
2022/12/22 09:40:00;;;;;;;13.77;9.80;;;;;;;7.59;100.00;95865.72;5033790;27;105010;-70
2022/12/22 09:43:18;;;;;;;27.50;19.27;;;;;;;7.70;100.00;95862.16;5033417;27;101857;-70
2022/12/22 09:45:45;;;;;;;11.87;8.73;;;;;;;7.30;100.00;95874.06;5052010;27;102908;-70
2022/12/22 09:48:14;;;;;;;11.10;9.03;;;;;;;7.19;100.00;95882.88;5033407;27;105552;-70
2022/12/22 09:50:42;;;;;;;11.93;9.20;;;;;;;6.86;100.00;95888.13;5034042;27;101826;-70
2022/12/22 09:53:28;;;;;;;9.20;6.70;;;;;;;6.79;100.00;95900.72;5034187;27;105353;-70
2022/12/22 09:55:56;;;;;;;7.33;5.37;;;;;;;6.79;100.00;95890.13;5055416;27;102532;-70
2022/12/22 09:58:27;;;;;;;6.93;5.40;;;;;;;6.75;100.00;95905.66;5033023;27;105337;-70
2022/12/22 10:01:02;;;;;;;6.47;5.03;;;;;;;6.72;100.00;95908.78;5032023;27;103944;-70
2022/12/22 10:03:34;;;;;;;5.80;5.20;;;;;;;6.80;100.00;95912.88;5033403;27;101792;-70
2022/12/22 10:06:10;;;;;;;7.67;5.00;;;;;;;6.83;100.00;95886.78;5033318;27;104732;-70
2022/12/22 10:08:40;;;;;;;5.00;4.50;;;;;;;6.95;100.00;95882.25;5032414;27;105047;-70
2022/12/22 10:11:12;;;;;;;6.37;4.97;;;;;;;7.03;100.00;95878.41;5033200;27;101914;-70
2022/12/22 10:13:40;;;;;;;7.53;5.43;;;;;;;7.11;100.00;95886.72;5033248;27;103854;-70
2022/12/22 10:16:21;;;;;;;7.37;5.30;;;;;;;7.12;100.00;95903.38;5032459;27;104216;-70
2022/12/22 10:18:56;;;;;;;6.77;5.10;;;;;;;7.04;100.00;95906.44;5036697;27;101780;-70
2022/12/22 10:21:23;;;;;;;8.60;7.70;;;;;;;7.08;100.00;95897.78;5051124;27;102792;-70
2022/12/22 10:23:52;;;;;;;8.87;7.60;;;;;;;7.33;100.00;95894.72;5033373;27;101874;-70
2022/12/22 10:26:23;;;;;;;5.27;4.60;;;;;;;7.40;100.00;95885.56;5032948;27;104066;-70
2022/12/22 10:28:55;;;;;;;6.77;5.30;;;;;;;7.73;100.00;95861.69;5032517;27;105301;-70
2022/12/22 10:31:26;;;;;;;7.53;6.20;;;;;;;7.95;100.00;95830.72;5032940;27;101888;-70
2022/12/22 10:33:55;;;;;;;8.10;5.60;;;;;;;7.97;100.00;95833.16;5032981;27;103585;-70
2022/12/22 10:36:25;;;;;;;52.13;33.70;;;;;;;8.15;100.00;95843.41;5050874;27;103074;-70
2022/12/22 10:38:57;;;;;;;165.17;98.60;;;;;;;8.11;100.00;95851.03;5035198;27;101790;-70
2022/12/22 10:41:27;;;;;;;11.80;8.97;;;;;;;7.97;100.00;95859.63;5031695;27;105853;-70
2022/12/22 10:43:57;;;;;;;6.70;5.40;;;;;;;7.77;100.00;95869.94;5051159;27;102173;-70
2022/12/22 10:46:35;;;;;;;6.77;5.47;;;;;;;7.75;100.00;95879.97;5032741;27;105479;-70
2022/12/22 10:49:18;;;;;;;34.40;24.77;;;;;;;7.63;100.00;95890.66;5032401;27;105378;-70
2022/12/22 10:51:49;;;;;;;9.03;6.60;;;;;;;7.62;100.00;95890.91;5031698;27;101788;-71
2022/12/22 10:54:35;;;;;;;5.90;4.80;;;;;;;7.57;100.00;95902.22;5032774;27;104691;-71
2022/12/22 10:57:07;;;;;;;5.40;4.80;;;;;;;7.54;100.00;95915.13;5032426;27;105284;-71
2022/12/22 10:59:47;;;;;;;4.83;4.13;;;;;;;7.60;100.00;95900.94;5032663;27;102201;-71
2022/12/22 11:02:26;;;;;;;5.13;4.30;;;;;;;7.49;100.00;95925.66;5035444;27;103537;-72
2022/12/22 11:05:01;;;;;;;5.83;5.33;;;;;;;7.60;100.00;95901.75;5049394;27;101850;-71
2022/12/22 11:07:31;;;;;;;4.70;4.10;;;;;;;7.59;100.00;95892.19;5012496;28;105540;-70
2022/12/22 11:10:00;;;;;;;5.87;5.20;;;;;;;7.69;100.00;95912.72;5011884;28;105133;-70
2022/12/22 11:12:39;;;;;;;4.07;3.17;;;;;;;7.76;100.00;95903.56;5012327;28;101818;-70
2022/12/22 11:15:17;;;;;;;4.77;3.60;;;;;;;7.80;100.00;95911.81;5012124;28;104002;-70
2022/12/22 11:17:52;;;;;;;3.47;3.10;;;;;;;7.82;100.00;95885.88;5029768;27;103710;-70
2022/12/22 11:20:34;;;;;;;4.73;3.13;;;;;;;7.88;100.00;95855.78;5032278;27;101799;-70
2022/12/22 11:23:07;;;;;;;4.57;3.43;;;;;;;7.90;100.00;95856.38;5032283;27;105141;-70
2022/12/22 11:26:03;;;;;;;4.67;3.83;;;;;;;7.90;100.00;95849.19;5050500;27;101499;-70
2022/12/22 11:28:43;;;;;;;3.00;2.70;;;;;;;7.89;100.00;95852.09;5046931;27;102800;-69
2022/12/22 11:31:29;;;;;;;3.20;2.90;;;;;;;7.80;100.00;95849.06;5047329;27;101748;-69
2022/12/22 11:34:07;;;;;;;3.47;3.17;;;;;;;7.76;100.00;95847.19;5045671;27;105352;-69
2022/12/22 11:36:47;;;;;;;3.87;3.47;;;;;;;7.72;100.00;95849.50;5045036;27;106596;-69
2022/12/22 11:39:17;;;;;;;4.13;3.73;;;;;;;7.73;100.00;95859.03;5045559;27;101958;-69
2022/12/22 11:42:01;;;;;;;4.63;4.23;;;;;;;7.69;100.00;95862.44;5047097;27;102403;-69
2022/12/22 11:44:46;;;;;;;6.10;4.83;;;;;;;7.68;100.00;95860.84;5044866;27;106307;-69
2022/12/22 11:47:24;;;;;;;4.00;3.30;;;;;;;7.61;100.00;95858.38;5050509;27;101995;-69
2022/12/22 11:50:25;;;;;;;3.40;3.10;;;;;;;7.57;100.00;95856.44;5044843;27;105702;-69
2022/12/22 11:53:05;;;;;;;3.67;3.30;;;;;;;7.54;100.00;95867.53;5036003;27;104544;-69
2022/12/22 11:55:35;;;;;;;3.93;3.33;;;;;;;7.63;100.00;95858.13;5045548;27;104873;-69
2022/12/22 11:58:36;;;;;;;3.73;3.43;;;;;;;7.49;100.00;95865.63;5044880;27;104779;-70
2022/12/22 12:01:14;;;;;;;3.30;3.00;;;;;;;7.54;100.00;95860.41;5045226;27;102132;-70
2022/12/22 12:04:08;;;;;;;3.83;3.50;;;;;;;7.38;100.00;95871.81;5045052;27;106492;-70
2022/12/22 12:06:52;;;;;;;4.63;3.63;;;;;;;7.35;100.00;95850.31;5045966;27;103222;-70
2022/12/22 12:09:36;;;;;;;4.63;3.90;;;;;;;7.39;100.00;95859.38;5079527;27;101891;-70
2022/12/22 12:12:11;;;;;;;4.63;3.67;;;;;;;7.41;100.00;95849.34;5047997;27;105443;-70
2022/12/22 12:14:58;;;;;;;3.90;3.00;;;;;;;7.84;100.00;95857.31;5045055;27;102043;-70
2022/12/22 12:17:43;;;;;;;3.40;2.90;;;;;;;8.39;100.00;95844.78;5045174;27;104006;-70
2022/12/22 12:20:26;;;;;;;3.37;2.93;;;;;;;8.39;100.00;95839.47;5044155;27;105728;-70
2022/12/22 12:23:13;;;;;;;3.60;3.23;;;;;;;8.42;100.00;95858.31;5044873;27;102075;-70
2022/12/22 12:25:44;;;;;;;5.97;3.70;;;;;;;8.35;100.00;95833.84;5031024;27;105045;-70
2022/12/22 12:28:23;;;;;;;7.07;4.07;;;;;;;8.36;100.00;95842.59;5044186;27;105214;-70
2022/12/22 12:30:56;;;;;;;6.87;4.10;;;;;;;8.36;100.00;95837.31;5044801;27;101909;-70
2022/12/22 12:33:36;;;;;;;4.97;3.40;;;;;;;8.37;100.00;95821.16;5044698;27;105762;-70
2022/12/22 12:36:10;;;;;;;3.37;3.03;;;;;;;8.46;100.00;95822.31;5040542;27;105461;-70
2022/12/22 12:38:47;;;;;;;4.87;3.77;;;;;;;8.46;100.00;95819.66;5031102;28;105215;-70
2022/12/22 12:41:23;;;;;;;6.00;4.30;;;;;;;8.65;100.00;95823.56;5030505;28;105412;-70
2022/12/22 12:43:53;;;;;;;7.50;5.03;;;;;;;8.69;100.00;95816.72;5032667;27;101720;-71
2022/12/22 12:46:59;;;;;;;3.93;2.97;;;;;;;8.72;100.00;95818.06;5031044;28;105139;-71
2022/12/22 12:49:57;;;;;;;6.33;4.10;;;;;;;8.63;100.00;95811.59;5030125;28;105099;-70
2022/12/22 12:53:14;;;;;;;7.03;4.47;;;;;;;8.59;100.00;95819.25;5009926;28;102130;-70
2022/12/22 12:55:58;;;;;;;6.17;4.70;;;;;;;8.57;100.00;95818.69;5031002;28;103959;-71
2022/12/22 12:58:51;;;;;;;4.20;3.30;;;;;;;8.47;100.00;95812.50;5030023;28;105909;-71
2022/12/22 13:01:56;;;;;;;5.73;4.13;;;;;;;8.36;100.00;95813.47;5034142;28;101790;-71
2022/12/22 13:05:05;;;;;;;7.60;4.03;;;;;;;8.21;100.00;95815.94;4998842;28;104977;-71
2022/12/22 13:08:08;;;;;;;7.57;5.43;;;;;;;8.14;100.00;95812.69;5015647;27;101889;-71
2022/12/22 13:10:41;;;;;;;5.50;4.07;;;;;;;8.04;100.00;95815.22;5030674;28;103516;-71
2022/12/22 13:13:12;;;;;;;5.03;4.13;;;;;;;7.97;100.00;95819.91;5029997;28;104959;-71
2022/12/22 13:15:43;;;;;;;5.50;4.03;;;;;;;7.90;100.00;95816.66;5030697;28;101871;-72
2022/12/22 13:18:42;;;;;;;9.67;5.27;;;;;;;7.91;100.00;95824.31;5030609;28;104843;-72
2022/12/22 13:21:15;;;;;;;6.13;4.97;;;;;;;7.84;100.00;95831.66;5029719;28;105420;-72
2022/12/22 13:23:45;;;;;;;8.70;5.23;;;;;;;7.82;100.00;95836.41;5030453;28;101954;-72
2022/12/22 13:26:17;;;;;;;6.63;5.00;;;;;;;7.76;100.00;95832.09;5032478;28;103916;-72
2022/12/22 13:28:49;;;;;;;6.90;5.37;;;;;;;7.77;100.00;95830.25;5031798;27;101719;-72
2022/12/22 13:31:21;;;;;;;6.33;5.47;;;;;;;7.64;100.00;95827.97;5013789;28;105063;-72
2022/12/22 13:33:52;;;;;;;7.30;6.30;;;;;;;7.65;100.00;95827.72;5029645;28;104145;-72
2022/12/22 13:36:26;;;;;;;8.73;5.07;;;;;;;7.52;100.00;95824.66;5030516;28;101721;-72
2022/12/22 13:39:01;;;;;;;5.90;5.00;;;;;;;7.50;100.00;95842.59;5031827;27;102649;-72
2022/12/22 13:41:30;;;;;;;7.10;5.20;;;;;;;7.47;100.00;95853.69;5031263;28;102645;-72
2022/12/22 13:44:04;;;;;;;10.90;7.70;;;;;;;7.51;100.00;95838.88;5030133;28;101960;-72
2022/12/22 13:46:34;;;;;;;11.13;7.33;;;;;;;7.49;100.00;95841.81;5029993;27;104925;-72
2022/12/22 13:49:03;;;;;;;11.30;7.63;;;;;;;7.41;100.00;95841.44;5031599;28;102199;-72
2022/12/22 13:51:35;;;;;;;9.50;6.40;;;;;;;7.43;100.00;95829.56;5029876;28;105186;-72
2022/12/22 13:54:04;;;;;;;6.57;5.50;;;;;;;7.39;100.00;95831.09;5029496;28;105277;-72
2022/12/22 13:56:38;;;;;;;9.40;6.57;;;;;;;7.38;100.00;95839.25;5029863;28;102078;-72
2022/12/22 13:59:21;;;;;;;9.30;7.20;;;;;;;7.36;100.00;95842.13;5029969;28;103721;-72
2022/12/22 14:01:50;;;;;;;7.63;6.00;;;;;;;7.42;100.00;95837.72;5030936;27;102921;-72
2022/12/22 14:04:17;;;;;;;5.77;4.77;;;;;;;7.39;100.00;95854.06;5063840;27;102020;-73
2022/12/22 14:06:44;;;;;;;7.80;5.40;;;;;;;7.43;100.00;95857.84;5029939;28;102617;-73
2022/12/22 14:09:12;;;;;;;6.63;4.90;;;;;;;7.43;100.00;95860.50;5032632;28;105244;-73
2022/12/22 14:11:42;;;;;;;5.40;4.47;;;;;;;7.44;100.00;95860.25;5029739;28;105549;-73
2022/12/22 14:14:10;;;;;;;4.97;4.23;;;;;;;7.50;100.00;95863.75;5029000;28;105071;-73
2022/12/22 14:16:47;;;;;;;5.00;4.23;;;;;;;7.56;100.00;95862.78;5029711;28;101834;-73
2022/12/22 14:19:14;;;;;;;3.63;3.30;;;;;;;7.60;100.00;95863.91;5031230;27;102376;-73
2022/12/22 14:21:43;;;;;;;4.47;3.63;;;;;;;7.64;100.00;95865.78;5028742;28;105910;-72
2022/12/22 14:24:15;;;;;;;6.57;4.07;;;;;;;7.64;100.00;95865.00;5029305;28;101842;-72
2022/12/22 14:26:45;;;;;;;5.07;3.73;;;;;;;7.56;100.00;95866.22;5029031;28;104746;-72
2022/12/22 14:29:17;;;;;;;5.33;4.43;;;;;;;7.52;100.00;95873.03;5028845;28;105297;-72
2022/12/22 14:31:54;;;;;;;14.90;11.70;;;;;;;7.50;100.00;95875.16;5033064;28;101763;-72
2022/12/22 14:34:26;;;;;;;4.53;4.10;;;;;;;7.51;100.00;95881.22;5028992;27;102524;-72
2022/12/22 14:36:54;;;;;;;4.97;4.47;;;;;;;7.70;100.00;95879.91;5029324;28;101895;-72
2022/12/22 14:39:23;;;;;;;3.97;3.60;;;;;;;7.63;100.00;95879.31;5029321;28;103596;-72
2022/12/22 14:41:53;;;;;;;4.80;3.80;;;;;;;7.48;100.00;95887.00;5029849;27;103257;-72
2022/12/22 14:44:23;;;;;;;4.97;3.50;;;;;;;7.53;100.00;95872.00;5029041;28;101993;-72
2022/12/22 14:47:05;;;;;;;6.57;5.03;;;;;;;7.41;100.00;95881.88;5029229;28;105000;-72
2022/12/22 14:49:34;;;;;;;11.77;7.93;;;;;;;7.57;100.00;95878.41;5028327;28;105063;-72
2022/12/22 14:52:06;;;;;;;4.70;3.80;;;;;;;7.69;100.00;95878.31;5028912;28;101941;-72
2022/12/22 14:54:33;;;;;;;7.63;5.00;;;;;;;7.67;100.00;95888.31;5033128;27;102328;-72
2022/12/22 14:57:10;;;;;;;8.33;5.57;;;;;;;7.77;100.00;95877.88;5028939;28;101968;-72
2022/12/22 14:59:37;;;;;;;8.37;6.90;;;;;;;7.86;100.00;95887.00;5028874;27;104802;-72
2022/12/22 15:02:21;;;;;;;8.37;5.10;;;;;;;7.93;100.00;95890.28;5028393;28;104185;-72
2022/12/22 15:04:48;;;;;;;5.17;4.30;;;;;;;8.25;100.00;95883.28;5028878;28;101832;-72
2022/12/22 15:07:19;;;;;;;3.03;2.70;;;;;;;8.35;100.00;95905.38;5028633;28;103654;-73
2022/12/22 15:09:46;;;;;;;4.93;3.30;;;;;;;8.56;100.00;95898.47;5029759;27;101931;-73
2022/12/22 15:12:17;;;;;;;5.53;4.40;;;;;;;8.69;100.00;95898.06;5028878;28;101900;-73
2022/12/22 15:14:47;;;;;;;4.47;3.10;;;;;;;8.53;100.00;95896.31;5028917;28;105223;-73
2022/12/22 15:17:20;;;;;;;5.13;2.83;;;;;;;8.81;100.00;95885.44;5031584;28;106642;-72
2022/12/22 15:19:48;;;;;;;5.63;3.93;;;;;;;8.82;100.00;95895.00;5028494;28;105149;-72